Aurora — WDE6368 — position and weather

sailwx.info

Track history (hours):
 
Tides and Currents Weather Stations Pressure Air Temp Water Temp Dewpoint Dewpoint Depression Visibility Wind Speed Wind Dir Waves Ship Positions

Aurora

Owner: Boston Harbor Cruises, Boston, MA. More information available from US FCC via Universal Licensing System and Coast Guard Vessel Documentation Center.

Last reported at 2017-Sep-19 15:30 UTC. Time now 2017-Sep-19 15:29 UTC.
Position N 42°22' W 071°03'.

Length 37 m.

Type: High speed craft. MMSI: 367379320.

Date/timePositionNaut miles runAvg speedWind from/ knotsBaromVisibWave heightAir tempDewpointWater temp
2017-Sep-19 15:30N 42°22' W 071°03'0 0.0
2017-Sep-19 15:00N 42°22' W 071°03'1 1.1
2017-Sep-19 14:30N 42°22' W 071°02'0 0.2
2017-Sep-19 14:00N 42°22' W 071°02'5 9.6
2017-Sep-19 13:31N 42°18' W 070°58'3 6.0
2017-Sep-19 12:58N 42°15' W 070°55'817.9
2017-Sep-19 12:30N 42°21' W 071°03'511.0
2017-Sep-19 12:01N 42°17' W 070°58'3 4.2
2017-Sep-19 11:21N 42°15' W 070°55'618.5
2017-Sep-19 11:01N 42°20' W 071°01'2 3.8
2017-Sep-19 10:30N 42°21' W 071°03'8 0.9
2017-Sep-19 01:03N 42°15' W 070°55'0 6.0
2017-Sep-19 01:00N 42°16' W 070°55'816.4
2017-Sep-19 00:30N 42°21' W 071°03'3 6.7
2017-Sep-19 00:00N 42°19' W 070°60'5 9.5
2017-Sep-18 23:29N 42°16' W 070°55'817.0
2017-Sep-18 23:00N 42°21' W 071°03'3 6.5
2017-Sep-18 22:31N 42°19' W 070°60'5 8.5
2017-Sep-18 21:54N 42°15' W 070°55'717.7
2017-Sep-18 21:31N 42°21' W 071°01'1 2.9
2017-Sep-18 21:01N 42°21' W 071°03'0 0.5
2017-Sep-18 20:30N 42°22' W 071°03'0 0.0
2017-Sep-18 20:00N 42°22' W 071°03'0 0.2
2017-Sep-18 19:29N 42°22' W 071°03'612.2
2017-Sep-18 19:01N 42°22' W 070°55'1529.0
2017-Sep-18 18:30N 42°32' W 070°41'918.2
2017-Sep-18 18:01N 42°39' W 070°33'0 0.1
2017-Sep-18 17:30N 42°39' W 070°33'714.3
2017-Sep-18 17:00N 42°33' W 070°38'1428.1
2017-Sep-18 16:31N 42°24' W 070°53'815.9
2017-Sep-18 16:00N 42°22' W 071°03'0 0.1
2017-Sep-18 15:30N 42°22' W 071°03'0 0.0
2017-Sep-18 15:00N 42°22' W 071°03'0 0.0
2017-Sep-18 14:31N 42°22' W 071°03'0 0.5
2017-Sep-18 14:01N 42°22' W 071°03'510.8
2017-Sep-18 13:30N 42°18' W 070°58'2 4.8
2017-Sep-18 13:00N 42°16' W 070°55'815.8
2017-Sep-18 12:30N 42°21' W 071°03'611.4
2017-Sep-18 12:01N 42°17' W 070°58'3 4.6
2017-Sep-18 11:26N 42°15' W 070°55'717.0
2017-Sep-18 11:01N 42°21' W 071°01'1 1.8
2017-Sep-18 10:30N 42°21' W 071°03'8 8.6
2017-Sep-18 09:33N 42°15' W 070°55'0 0.0
2017-Sep-18 09:24N 42°15' W 070°55'3 0.3
2017-Sep-17 22:41N 42°17' W 070°58'526.2
2017-Sep-17 22:30N 42°21' W 071°02'1 2.0
2017-Sep-17 22:00N 42°22' W 071°03'1 1.1
2017-Sep-17 21:30N 42°21' W 071°02'1121.3
2017-Sep-17 20:59N 42°23' W 070°47'1428.6
2017-Sep-17 20:30N 42°25' W 070°29'0 0.3
2017-Sep-17 20:00N 42°26' W 070°29'3 5.4
2017-Sep-17 19:31N 42°25' W 070°33'1428.1
2017-Sep-17 19:01N 42°23' W 070°51'917.3
2017-Sep-17 18:30N 42°22' W 071°03'0 0.1
2017-Sep-17 18:00N 42°22' W 071°03'3 6.2
2017-Sep-17 17:30N 42°20' W 070°59'1224.9
2017-Sep-17 17:00N 42°24' W 070°43'1122.1
2017-Sep-17 16:30N 42°25' W 070°29'1 1.0
2017-Sep-17 15:59N 42°25' W 070°28'1 1.2
2017-Sep-17 15:28N 42°26' W 070°28'1227.6
2017-Sep-17 15:01N 42°25' W 070°45'1224.3
2017-Sep-17 14:31N 42°20' W 071°00'2 4.2
2017-Sep-17 14:00N 42°22' W 071°02'714.5
2017-Sep-17 13:30N 42°16' W 070°56'1 1.9
2017-Sep-17 12:59N 42°15' W 070°55'0 0.0
2017-Sep-16 20:33N 42°16' W 070°55'0 7.3
2017-Sep-16 20:30N 42°16' W 070°55'815.1
2017-Sep-16 19:58N 42°22' W 071°03'0 0.0
2017-Sep-16 19:30N 42°22' W 071°03'1019.7
2017-Sep-16 19:01N 42°20' W 070°50'1428.8
2017-Sep-16 18:31N 42°24' W 070°31'713.4
2017-Sep-16 18:01N 42°30' W 070°33'611.0
2017-Sep-16 17:30N 42°29' W 070°41'1 1.3
2017-Sep-16 17:00N 42°29' W 070°42'1121.9
2017-Sep-16 16:30N 42°23' W 070°54'714.1
2017-Sep-16 16:00N 42°22' W 071°03'0 0.1
2017-Sep-16 15:29N 42°22' W 071°03'0 0.6
2017-Sep-16 15:00N 42°21' W 071°03'0 0.1
2017-Sep-16 14:30N 42°21' W 071°03'0 0.6
2017-Sep-16 14:01N 42°21' W 071°03'0 0.5
2017-Sep-16 13:30N 42°22' W 071°03'1 1.1
2017-Sep-16 13:00N 42°22' W 071°02'0 0.1
2017-Sep-16 12:30N 42°22' W 071°02'3 5.8
2017-Sep-16 12:00N 42°19' W 070°60'5 0.5
2017-Sep-16 00:56N 42°16' W 070°55'819.2
2017-Sep-16 00:30N 42°21' W 071°03'1 2.7
2017-Sep-16 00:01N 42°21' W 071°01'712.4
2017-Sep-15 23:26N 42°16' W 070°55'818.9
2017-Sep-15 23:00N 42°21' W 071°03'2 3.2
2017-Sep-15 22:31N 42°21' W 071°01'7 9.4
2017-Sep-15 21:48N 42°16' W 070°55'621.3
2017-Sep-15 21:30N 42°20' W 071°00'2 4.5
2017-Sep-15 21:01N 42°21' W 071°03'2 3.1
2017-Sep-15 20:31N 42°23' W 071°03'0 0.0
2017-Sep-15 19:52N 42°23' W 071°03'0 0.0
2017-Sep-15 19:30N 42°23' W 071°03'0 0.0
2017-Sep-15 19:01N 42°23' W 071°03'0 0.0
2017-Sep-15 18:30N 42°23' W 071°03'0 0.0
2017-Sep-15 18:00N 42°23' W 071°03'0 0.0
2017-Sep-15 17:30N 42°23' W 071°03'0 0.0
2017-Sep-15 17:01N 42°23' W 071°03'0 0.0
2017-Sep-15 16:31N 42°23' W 071°03'0 0.0
2017-Sep-15 16:00N 42°23' W 071°03'0 0.0
2017-Sep-15 15:30N 42°23' W 071°03'0 0.0
2017-Sep-15 15:00N 42°23' W 071°03'0 0.0
2017-Sep-15 14:31N 42°23' W 071°03'1 2.7
2017-Sep-15 14:00N 42°22' W 071°02'1 1.3
2017-Sep-15 13:30N 42°22' W 071°03'0 0.0
2017-Sep-15 13:00N 42°22' W 071°03'0 0.5
2017-Sep-15 12:30N 42°21' W 071°03'510.1
2017-Sep-15 12:01N 42°18' W 070°58'3 4.7
2017-Sep-15 11:20N 42°15' W 070°55'619.3
2017-Sep-15 11:01N 42°20' W 071°01'2 3.8
2017-Sep-15 10:30N 42°21' W 071°03'8 0.8
2017-Sep-15 00:56N 42°16' W 070°55'818.8
2017-Sep-15 00:30N 42°21' W 071°03'3 5.1
2017-Sep-15 00:00N 42°20' W 071°00'610.7
2017-Sep-14 23:28N 42°16' W 070°55'817.8
2017-Sep-14 23:00N 42°21' W 071°03'2 4.8
2017-Sep-14 22:30N 42°20' W 071°00'6 9.5
2017-Sep-14 21:53N 42°16' W 070°55'720.0
2017-Sep-14 21:30N 42°21' W 071°02'1 1.5
2017-Sep-14 21:00N 42°21' W 071°03'0 0.5
2017-Sep-14 20:30N 42°22' W 071°03'0 0.0
2017-Sep-14 20:00N 42°22' W 071°03'0 0.0
2017-Sep-14 19:30N 42°22' W 071°03'0 0.0
2017-Sep-14 19:00N 42°22' W 071°03'0 0.1
2017-Sep-14 18:30N 42°22' W 071°03'0 0.1
2017-Sep-14 18:00N 42°22' W 071°03'0 0.0
2017-Sep-14 17:30N 42°22' W 071°03'0 0.0
2017-Sep-14 17:00N 42°22' W 071°03'0 0.0
2017-Sep-14 16:30N 42°22' W 071°03'0 0.0
2017-Sep-14 16:00N 42°22' W 071°03'0 0.7
2017-Sep-14 15:31N 42°21' W 071°02'0 0.6
2017-Sep-14 15:00N 42°22' W 071°02'0 0.8
2017-Sep-14 14:30N 42°21' W 071°02'1 1.2
2017-Sep-14 14:00N 42°22' W 071°03'4 8.4
2017-Sep-14 13:30N 42°19' W 070°59'4 7.3
2017-Sep-14 12:56N 42°15' W 070°55'819.2
2017-Sep-14 12:31N 42°21' W 071°03'5 9.4
2017-Sep-14 12:00N 42°18' W 070°58'3 4.8
2017-Sep-14 11:16N 42°16' W 070°55'620.6
2017-Sep-14 11:00N 42°20' W 070°60'3 5.5
2017-Sep-14 10:30N 42°21' W 071°03'8 0.9
2017-Sep-14 01:07N 42°15' W 070°55'0 2.5
2017-Sep-14 01:00N 42°16' W 070°55'816.8
2017-Sep-14 00:30N 42°21' W 071°03'4 9.0
2017-Sep-14 00:00N 42°18' W 070°58'4 7.5
2017-Sep-13 23:31N 42°16' W 070°55'816.5
2017-Sep-13 23:01N 42°21' W 071°03'3 5.6
2017-Sep-13 22:31N 42°20' W 070°60'611.3
2017-Sep-13 22:00N 42°15' W 070°55'713.5
2017-Sep-13 21:31N 42°21' W 071°01'2 3.3
2017-Sep-13 21:00N 42°21' W 071°03'0 0.7
2017-Sep-13 20:30N 42°22' W 071°03'0 0.1
2017-Sep-13 20:00N 42°22' W 071°03'3 5.5
2017-Sep-13 19:30N 42°20' W 070°60'1427.7
2017-Sep-13 19:00N 42°25' W 070°42'1427.9
2017-Sep-13 18:30N 42°31' W 070°25'5 9.1
2017-Sep-13 18:01N 42°33' W 070°19'2 4.5
2017-Sep-13 17:31N 42°31' W 070°18'1427.3
2017-Sep-13 17:00N 42°26' W 070°35'1428.4
2017-Sep-13 16:30N 42°23' W 070°54'713.7
2017-Sep-13 16:00N 42°22' W 071°03'0 0.2
2017-Sep-13 15:30N 42°22' W 071°03'0 0.0
2017-Sep-13 15:00N 42°22' W 071°03'1 1.1
2017-Sep-13 14:30N 42°22' W 071°02'0 0.7
2017-Sep-13 14:01N 42°21' W 071°02'510.0
2017-Sep-13 13:31N 42°18' W 070°58'3 6.0
2017-Sep-13 13:00N 42°16' W 070°55'816.5
2017-Sep-13 12:30N 42°21' W 071°03'611.0
2017-Sep-13 12:00N 42°18' W 070°58'3 5.8
2017-Sep-13 11:30N 42°15' W 070°55'714.7
2017-Sep-13 11:01N 42°21' W 071°01'1 2.1
2017-Sep-13 10:31N 42°21' W 071°03'816.4
2017-Sep-13 10:00N 42°15' W 070°55'1 0.1
2017-Sep-13 00:53N 42°16' W 070°56'821.0
2017-Sep-13 00:30N 42°21' W 071°03'3 5.9
2017-Sep-13 00:00N 42°20' W 070°60'510.3
2017-Sep-12 23:29N 42°15' W 070°55'817.3
2017-Sep-12 23:00N 42°21' W 071°03'2 3.3
2017-Sep-12 22:31N 42°21' W 071°01'712.9
2017-Sep-12 21:58N 42°15' W 070°55'613.7
2017-Sep-12 21:31N 42°20' W 071°00'2 4.7
2017-Sep-12 21:00N 42°22' W 071°03'0 0.0
2017-Sep-12 20:30N 42°22' W 071°03'0 0.1
2017-Sep-12 20:01N 42°22' W 071°03'0 0.0
2017-Sep-12 19:30N 42°22' W 071°03'1020.0
2017-Sep-12 19:01N 42°24' W 070°50'1428.9
2017-Sep-12 18:31N 42°32' W 070°33'714.7
2017-Sep-12 18:01N 42°36' W 070°25'1 2.6
2017-Sep-12 17:30N 42°35' W 070°24'1121.8
2017-Sep-12 17:01N 42°27' W 070°34'1427.7
2017-Sep-12 16:30N 42°23' W 070°52'816.6
2017-Sep-12 16:00N 42°22' W 071°03'0 0.2
2017-Sep-12 15:30N 42°22' W 071°03'0 0.0
2017-Sep-12 15:00N 42°22' W 071°03'1 1.1
2017-Sep-12 14:30N 42°22' W 071°02'0 0.1
2017-Sep-12 14:00N 42°22' W 071°02'5 9.1
2017-Sep-12 13:31N 42°18' W 070°58'4 6.8
2017-Sep-12 12:59N 42°15' W 070°55'817.3
2017-Sep-12 12:30N 42°21' W 071°03'5 9.5
2017-Sep-12 12:01N 42°18' W 070°58'4 6.6
2017-Sep-12 11:28N 42°15' W 070°55'613.1
2017-Sep-12 11:01N 42°20' W 070°60'3 5.1
2017-Sep-12 10:30N 42°21' W 071°03'816.5
2017-Sep-12 10:00N 42°15' W 070°55'1 0.1
2017-Sep-12 00:56N 42°16' W 070°55'818.7
2017-Sep-12 00:30N 42°21' W 071°03'5 9.7
2017-Sep-12 00:00N 42°18' W 070°58'3 6.5
2017-Sep-11 23:29N 42°16' W 070°55'817.5
2017-Sep-11 23:00N 42°21' W 071°03'3 5.9
2017-Sep-11 22:30N 42°20' W 070°60'5 8.4
2017-Sep-11 21:52N 42°16' W 070°55'719.7
2017-Sep-11 21:30N 42°21' W 071°02'1 1.9
2017-Sep-11 21:00N 42°21' W 071°03'0 0.6
2017-Sep-11 20:30N 42°22' W 071°03'0 0.2
2017-Sep-11 20:00N 42°22' W 071°03'0 0.9
2017-Sep-11 19:30N 42°21' W 071°02'1121.2
2017-Sep-11 19:00N 42°26' W 070°49'1428.0
2017-Sep-11 18:30N 42°33' W 070°33'714.5
2017-Sep-11 18:00N 42°37' W 070°25'2 4.5
2017-Sep-11 17:30N 42°36' W 070°22'1121.7
2017-Sep-11 17:01N 42°30' W 070°35'1529.2
2017-Sep-11 16:31N 42°23' W 070°52'816.4
2017-Sep-11 16:00N 42°22' W 071°03'0 0.1
2017-Sep-11 15:30N 42°22' W 071°03'0 0.0
2017-Sep-11 15:00N 42°22' W 071°03'0 0.0
2017-Sep-11 14:30N 42°22' W 071°03'0 0.6
2017-Sep-11 14:00N 42°22' W 071°03'510.1
2017-Sep-11 13:30N 42°18' W 070°58'3 6.0
2017-Sep-11 13:01N 42°16' W 070°55'816.2
2017-Sep-11 12:30N 42°21' W 071°03'611.4
2017-Sep-11 12:01N 42°17' W 070°57'3 5.3
2017-Sep-11 11:30N 42°15' W 070°55'815.1
2017-Sep-11 11:00N 42°21' W 071°02'1 1.6
2017-Sep-11 10:31N 42°21' W 071°03'816.5
2017-Sep-11 10:00N 42°15' W 070°55'0 0.0
2017-Sep-11 09:30N 42°15' W 070°55'1 0.1
2017-Sep-10 21:30N 42°16' W 070°56'714.6
2017-Sep-10 21:00N 42°22' W 071°02'1 1.3
2017-Sep-10 20:30N 42°22' W 071°03'917.3
2017-Sep-10 20:00N 42°24' W 070°52'1529.4
2017-Sep-10 19:30N 42°31' W 070°34'1428.8
2017-Sep-10 19:01N 42°37' W 070°17'2 3.3
2017-Sep-10 18:31N 42°39' W 070°15'3 5.4
2017-Sep-10 18:00N 42°40' W 070°18'511.1
2017-Sep-10 17:30N 42°37' W 070°24'1427.8
2017-Sep-10 17:01N 42°30' W 070°40'1427.9
2017-Sep-10 16:31N 42°22' W 070°56'511.0
2017-Sep-10 16:01N 42°22' W 071°03'0 0.0
2017-Sep-10 15:30N 42°22' W 071°03'1 1.2
2017-Sep-10 15:01N 42°22' W 071°02'0 0.3
2017-Sep-10 14:01N 42°21' W 071°02'1 1.5
2017-Sep-10 13:31N 42°22' W 071°03'0 0.8
2017-Sep-10 13:01N 42°22' W 071°02'0 0.4
2017-Sep-10 12:31N 42°22' W 071°02'816.2
2017-Sep-10 12:01N 42°16' W 070°55'0 0.5
2017-Sep-10 11:30N 42°15' W 070°55'0 0.0
2017-Sep-10 00:26N 42°16' W 070°55'818.8
2017-Sep-10 00:00N 42°21' W 071°02'0 0.9
2017-Sep-09 23:31N 42°22' W 071°03'2 3.8
2017-Sep-09 23:00N 42°21' W 071°01'1325.2
2017-Sep-09 22:30N 42°27' W 070°46'1428.4
2017-Sep-09 22:01N 42°34' W 070°29'1020.2
2017-Sep-09 21:31N 42°40' W 070°18'1 2.9
2017-Sep-09 21:00N 42°39' W 070°16'1 1.1
2017-Sep-09 20:30N 42°39' W 070°15'1019.2
2017-Sep-09 20:01N 42°35' W 070°28'918.9
2017-Sep-09 19:30N 42°30' W 070°38'1529.1
2017-Sep-09 19:01N 42°22' W 070°55'612.3
2017-Sep-09 18:30N 42°22' W 071°03'1 2.0
2017-Sep-09 18:00N 42°21' W 071°02'1526.5
2017-Sep-09 17:26N 42°28' W 070°43'1229.1
2017-Sep-09 17:01N 42°34' W 070°29'1326.8
2017-Sep-09 16:30N 42°41' W 070°13'1 1.9
2017-Sep-09 16:01N 42°40' W 070°13'714.6
2017-Sep-09 15:30N 42°38' W 070°23'  
Track history (hours):
 
Tides and Currents Weather Stations Pressure Air Temp Water Temp Dewpoint Dewpoint Depression Visibility Wind Speed Wind Dir Waves Ship Positions

Aurora

Owner: Boston Harbor Cruises, Boston, MA. More information available from US FCC via Universal Licensing System and Coast Guard Vessel Documentation Center.

Last reported at 2017-Sep-19 15:30 UTC. Time now 2017-Sep-19 15:29 UTC.
Position N 42°22' W 071°03'.

Length 37 m.

Type: High speed craft. MMSI: 367379320.

Date/timePositionNaut miles runAvg speedWind from/ knotsBaromVisibWave heightAir tempDewpointWater temp
2017-Sep-19 15:30N 42°22' W 071°03'0 0.0
2017-Sep-19 15:00N 42°22' W 071°03'1 1.1
2017-Sep-19 14:30N 42°22' W 071°02'0 0.2
2017-Sep-19 14:00N 42°22' W 071°02'5 9.6
2017-Sep-19 13:31N 42°18' W 070°58'3 6.0
2017-Sep-19 12:58N 42°15' W 070°55'817.9
2017-Sep-19 12:30N 42°21' W 071°03'511.0
2017-Sep-19 12:01N 42°17' W 070°58'3 4.2
2017-Sep-19 11:21N 42°15' W 070°55'618.5
2017-Sep-19 11:01N 42°20' W 071°01'2 3.8
2017-Sep-19 10:30N 42°21' W 071°03'8 0.9
2017-Sep-19 01:03N 42°15' W 070°55'0 6.0
2017-Sep-19 01:00N 42°16' W 070°55'816.4
2017-Sep-19 00:30N 42°21' W 071°03'3 6.7
2017-Sep-19 00:00N 42°19' W 070°60'5 9.5
2017-Sep-18 23:29N 42°16' W 070°55'817.0
2017-Sep-18 23:00N 42°21' W 071°03'3 6.5
2017-Sep-18 22:31N 42°19' W 070°60'5 8.5
2017-Sep-18 21:54N 42°15' W 070°55'717.7
2017-Sep-18 21:31N 42°21' W 071°01'1 2.9
2017-Sep-18 21:01N 42°21' W 071°03'0 0.5
2017-Sep-18 20:30N 42°22' W 071°03'0 0.0
2017-Sep-18 20:00N 42°22' W 071°03'0 0.2
2017-Sep-18 19:29N 42°22' W 071°03'612.2
2017-Sep-18 19:01N 42°22' W 070°55'1529.0
2017-Sep-18 18:30N 42°32' W 070°41'918.2
2017-Sep-18 18:01N 42°39' W 070°33'0 0.1
2017-Sep-18 17:30N 42°39' W 070°33'714.3
2017-Sep-18 17:00N 42°33' W 070°38'1428.1
2017-Sep-18 16:31N 42°24' W 070°53'815.9
2017-Sep-18 16:00N 42°22' W 071°03'0 0.1
2017-Sep-18 15:30N 42°22' W 071°03'0 0.0
2017-Sep-18 15:00N 42°22' W 071°03'0 0.0
2017-Sep-18 14:31N 42°22' W 071°03'0 0.5
2017-Sep-18 14:01N 42°22' W 071°03'510.8
2017-Sep-18 13:30N 42°18' W 070°58'2 4.8
2017-Sep-18 13:00N 42°16' W 070°55'815.8
2017-Sep-18 12:30N 42°21' W 071°03'611.4
2017-Sep-18 12:01N 42°17' W 070°58'3 4.6
2017-Sep-18 11:26N 42°15' W 070°55'717.0
2017-Sep-18 11:01N 42°21' W 071°01'1 1.8
2017-Sep-18 10:30N 42°21' W 071°03'8 8.6
2017-Sep-18 09:33N 42°15' W 070°55'0 0.0
2017-Sep-18 09:24N 42°15' W 070°55'3 0.3
2017-Sep-17 22:41N 42°17' W 070°58'526.2
2017-Sep-17 22:30N 42°21' W 071°02'1 2.0
2017-Sep-17 22:00N 42°22' W 071°03'1 1.1
2017-Sep-17 21:30N 42°21' W 071°02'1121.3
2017-Sep-17 20:59N 42°23' W 070°47'1428.6
2017-Sep-17 20:30N 42°25' W 070°29'0 0.3
2017-Sep-17 20:00N 42°26' W 070°29'3 5.4
2017-Sep-17 19:31N 42°25' W 070°33'1428.1
2017-Sep-17 19:01N 42°23' W 070°51'917.3
2017-Sep-17 18:30N 42°22' W 071°03'0 0.1
2017-Sep-17 18:00N 42°22' W 071°03'3 6.2
2017-Sep-17 17:30N 42°20' W 070°59'1224.9
2017-Sep-17 17:00N 42°24' W 070°43'1122.1
2017-Sep-17 16:30N 42°25' W 070°29'1 1.0
2017-Sep-17 15:59N 42°25' W 070°28'1 1.2
2017-Sep-17 15:28N 42°26' W 070°28'1227.6
2017-Sep-17 15:01N 42°25' W 070°45'1224.3
2017-Sep-17 14:31N 42°20' W 071°00'2 4.2
2017-Sep-17 14:00N 42°22' W 071°02'714.5
2017-Sep-17 13:30N 42°16' W 070°56'1 1.9
2017-Sep-17 12:59N 42°15' W 070°55'0 0.0
2017-Sep-16 20:33N 42°16' W 070°55'0 7.3
2017-Sep-16 20:30N 42°16' W 070°55'815.1
2017-Sep-16 19:58N 42°22' W 071°03'0 0.0
2017-Sep-16 19:30N 42°22' W 071°03'1019.7
2017-Sep-16 19:01N 42°20' W 070°50'1428.8
2017-Sep-16 18:31N 42°24' W 070°31'713.4
2017-Sep-16 18:01N 42°30' W 070°33'611.0
2017-Sep-16 17:30N 42°29' W 070°41'1 1.3
2017-Sep-16 17:00N 42°29' W 070°42'1121.9
2017-Sep-16 16:30N 42°23' W 070°54'714.1
2017-Sep-16 16:00N 42°22' W 071°03'0 0.1
2017-Sep-16 15:29N 42°22' W 071°03'0 0.6
2017-Sep-16 15:00N 42°21' W 071°03'0 0.1
2017-Sep-16 14:30N 42°21' W 071°03'0 0.6
2017-Sep-16 14:01N 42°21' W 071°03'0 0.5
2017-Sep-16 13:30N 42°22' W 071°03'1 1.1
2017-Sep-16 13:00N 42°22' W 071°02'0 0.1
2017-Sep-16 12:30N 42°22' W 071°02'3 5.8
2017-Sep-16 12:00N 42°19' W 070°60'5 0.5
2017-Sep-16 00:56N 42°16' W 070°55'819.2
2017-Sep-16 00:30N 42°21' W 071°03'1 2.7
2017-Sep-16 00:01N 42°21' W 071°01'712.4
2017-Sep-15 23:26N 42°16' W 070°55'818.9
2017-Sep-15 23:00N 42°21' W 071°03'2 3.2
2017-Sep-15 22:31N 42°21' W 071°01'7 9.4
2017-Sep-15 21:48N 42°16' W 070°55'621.3
2017-Sep-15 21:30N 42°20' W 071°00'2 4.5
2017-Sep-15 21:01N 42°21' W 071°03'2 3.1
2017-Sep-15 20:31N 42°23' W 071°03'0 0.0
2017-Sep-15 19:52N 42°23' W 071°03'0 0.0
2017-Sep-15 19:30N 42°23' W 071°03'0 0.0
2017-Sep-15 19:01N 42°23' W 071°03'0 0.0
2017-Sep-15 18:30N 42°23' W 071°03'0 0.0
2017-Sep-15 18:00N 42°23' W 071°03'0 0.0
2017-Sep-15 17:30N 42°23' W 071°03'0 0.0
2017-Sep-15 17:01N 42°23' W 071°03'0 0.0
2017-Sep-15 16:31N 42°23' W 071°03'0 0.0
2017-Sep-15 16:00N 42°23' W 071°03'0 0.0
2017-Sep-15 15:30N 42°23' W 071°03'0 0.0
2017-Sep-15 15:00N 42°23' W 071°03'0 0.0
2017-Sep-15 14:31N 42°23' W 071°03'1 2.7
2017-Sep-15 14:00N 42°22' W 071°02'1 1.3
2017-Sep-15 13:30N 42°22' W 071°03'0 0.0
2017-Sep-15 13:00N 42°22' W 071°03'0 0.5
2017-Sep-15 12:30N 42°21' W 071°03'510.1
2017-Sep-15 12:01N 42°18' W 070°58'3 4.7
2017-Sep-15 11:20N 42°15' W 070°55'619.3
2017-Sep-15 11:01N 42°20' W 071°01'2 3.8
2017-Sep-15 10:30N 42°21' W 071°03'8 0.8
2017-Sep-15 00:56N 42°16' W 070°55'818.8
2017-Sep-15 00:30N 42°21' W 071°03'3 5.1
2017-Sep-15 00:00N 42°20' W 071°00'610.7
2017-Sep-14 23:28N 42°16' W 070°55'817.8
2017-Sep-14 23:00N 42°21' W 071°03'2 4.8
2017-Sep-14 22:30N 42°20' W 071°00'6 9.5
2017-Sep-14 21:53N 42°16' W 070°55'720.0
2017-Sep-14 21:30N 42°21' W 071°02'1 1.5
2017-Sep-14 21:00N 42°21' W 071°03'0 0.5
2017-Sep-14 20:30N 42°22' W 071°03'0 0.0
2017-Sep-14 20:00N 42°22' W 071°03'0 0.0
2017-Sep-14 19:30N 42°22' W 071°03'0 0.0
2017-Sep-14 19:00N 42°22' W 071°03'0 0.1
2017-Sep-14 18:30N 42°22' W 071°03'0 0.1
2017-Sep-14 18:00N 42°22' W 071°03'0 0.0
2017-Sep-14 17:30N 42°22' W 071°03'0 0.0
2017-Sep-14 17:00N 42°22' W 071°03'0 0.0
2017-Sep-14 16:30N 42°22' W 071°03'0 0.0
2017-Sep-14 16:00N 42°22' W 071°03'0 0.7
2017-Sep-14 15:31N 42°21' W 071°02'0 0.6
2017-Sep-14 15:00N 42°22' W 071°02'0 0.8
2017-Sep-14 14:30N 42°21' W 071°02'1 1.2
2017-Sep-14 14:00N 42°22' W 071°03'4 8.4
2017-Sep-14 13:30N 42°19' W 070°59'4 7.3
2017-Sep-14 12:56N 42°15' W 070°55'819.2
2017-Sep-14 12:31N 42°21' W 071°03'5 9.4
2017-Sep-14 12:00N 42°18' W 070°58'3 4.8
2017-Sep-14 11:16N 42°16' W 070°55'620.6
2017-Sep-14 11:00N 42°20' W 070°60'3 5.5
2017-Sep-14 10:30N 42°21' W 071°03'8 0.9
2017-Sep-14 01:07N 42°15' W 070°55'0 2.5
2017-Sep-14 01:00N 42°16' W 070°55'816.8
2017-Sep-14 00:30N 42°21' W 071°03'4 9.0
2017-Sep-14 00:00N 42°18' W 070°58'4 7.5
2017-Sep-13 23:31N 42°16' W 070°55'816.5
2017-Sep-13 23:01N 42°21' W 071°03'3 5.6
2017-Sep-13 22:31N 42°20' W 070°60'611.3
2017-Sep-13 22:00N 42°15' W 070°55'713.5
2017-Sep-13 21:31N 42°21' W 071°01'2 3.3
2017-Sep-13 21:00N 42°21' W 071°03'0 0.7
2017-Sep-13 20:30N 42°22' W 071°03'0 0.1
2017-Sep-13 20:00N 42°22' W 071°03'3 5.5
2017-Sep-13 19:30N 42°20' W 070°60'1427.7
2017-Sep-13 19:00N 42°25' W 070°42'1427.9
2017-Sep-13 18:30N 42°31' W 070°25'5 9.1
2017-Sep-13 18:01N 42°33' W 070°19'2 4.5
2017-Sep-13 17:31N 42°31' W 070°18'1427.3
2017-Sep-13 17:00N 42°26' W 070°35'1428.4
2017-Sep-13 16:30N 42°23' W 070°54'713.7
2017-Sep-13 16:00N 42°22' W 071°03'0 0.2
2017-Sep-13 15:30N 42°22' W 071°03'0 0.0
2017-Sep-13 15:00N 42°22' W 071°03'1 1.1
2017-Sep-13 14:30N 42°22' W 071°02'0 0.7
2017-Sep-13 14:01N 42°21' W 071°02'510.0
2017-Sep-13 13:31N 42°18' W 070°58'3 6.0
2017-Sep-13 13:00N 42°16' W 070°55'816.5
2017-Sep-13 12:30N 42°21' W 071°03'611.0
2017-Sep-13 12:00N 42°18' W 070°58'3 5.8
2017-Sep-13 11:30N 42°15' W 070°55'714.7
2017-Sep-13 11:01N 42°21' W 071°01'1 2.1
2017-Sep-13 10:31N 42°21' W 071°03'816.4
2017-Sep-13 10:00N 42°15' W 070°55'1 0.1
2017-Sep-13 00:53N 42°16' W 070°56'821.0
2017-Sep-13 00:30N 42°21' W 071°03'3 5.9
2017-Sep-13 00:00N 42°20' W 070°60'510.3
2017-Sep-12 23:29N 42°15' W 070°55'817.3
2017-Sep-12 23:00N 42°21' W 071°03'2 3.3
2017-Sep-12 22:31N 42°21' W 071°01'712.9
2017-Sep-12 21:58N 42°15' W 070°55'613.7
2017-Sep-12 21:31N 42°20' W 071°00'2 4.7
2017-Sep-12 21:00N 42°22' W 071°03'0 0.0
2017-Sep-12 20:30N 42°22' W 071°03'0 0.1
2017-Sep-12 20:01N 42°22' W 071°03'0 0.0
2017-Sep-12 19:30N 42°22' W 071°03'1020.0
2017-Sep-12 19:01N 42°24' W 070°50'1428.9
2017-Sep-12 18:31N 42°32' W 070°33'714.7
2017-Sep-12 18:01N 42°36' W 070°25'1 2.6
2017-Sep-12 17:30N 42°35' W 070°24'1121.8
2017-Sep-12 17:01N 42°27' W 070°34'1427.7
2017-Sep-12 16:30N 42°23' W 070°52'816.6
2017-Sep-12 16:00N 42°22' W 071°03'0 0.2
2017-Sep-12 15:30N 42°22' W 071°03'0 0.0
2017-Sep-12 15:00N 42°22' W 071°03'1 1.1
2017-Sep-12 14:30N 42°22' W 071°02'0 0.1
2017-Sep-12 14:00N 42°22' W 071°02'5 9.1
2017-Sep-12 13:31N 42°18' W 070°58'4 6.8
2017-Sep-12 12:59N 42°15' W 070°55'817.3
2017-Sep-12 12:30N 42°21' W 071°03'5 9.5
2017-Sep-12 12:01N 42°18' W 070°58'4 6.6
2017-Sep-12 11:28N 42°15' W 070°55'613.1
2017-Sep-12 11:01N 42°20' W 070°60'3 5.1
2017-Sep-12 10:30N 42°21' W 071°03'816.5
2017-Sep-12 10:00N 42°15' W 070°55'1 0.1
2017-Sep-12 00:56N 42°16' W 070°55'818.7
2017-Sep-12 00:30N 42°21' W 071°03'5 9.7
2017-Sep-12 00:00N 42°18' W 070°58'3 6.5
2017-Sep-11 23:29N 42°16' W 070°55'817.5
2017-Sep-11 23:00N 42°21' W 071°03'3 5.9
2017-Sep-11 22:30N 42°20' W 070°60'5 8.4
2017-Sep-11 21:52N 42°16' W 070°55'719.7
2017-Sep-11 21:30N 42°21' W 071°02'1 1.9
2017-Sep-11 21:00N 42°21' W 071°03'0 0.6
2017-Sep-11 20:30N 42°22' W 071°03'0 0.2
2017-Sep-11 20:00N 42°22' W 071°03'0 0.9
2017-Sep-11 19:30N 42°21' W 071°02'1121.2
2017-Sep-11 19:00N 42°26' W 070°49'1428.0
2017-Sep-11 18:30N 42°33' W 070°33'714.5
2017-Sep-11 18:00N 42°37' W 070°25'2 4.5
2017-Sep-11 17:30N 42°36' W 070°22'1121.7
2017-Sep-11 17:01N 42°30' W 070°35'1529.2
2017-Sep-11 16:31N 42°23' W 070°52'816.4
2017-Sep-11 16:00N 42°22' W 071°03'0 0.1
2017-Sep-11 15:30N 42°22' W 071°03'0 0.0
2017-Sep-11 15:00N 42°22' W 071°03'0 0.0
2017-Sep-11 14:30N 42°22' W 071°03'0 0.6
2017-Sep-11 14:00N 42°22' W 071°03'510.1
2017-Sep-11 13:30N 42°18' W 070°58'3 6.0
2017-Sep-11 13:01N 42°16' W 070°55'816.2
2017-Sep-11 12:30N 42°21' W 071°03'611.4
2017-Sep-11 12:01N 42°17' W 070°57'3 5.3
2017-Sep-11 11:30N 42°15' W 070°55'815.1
2017-Sep-11 11:00N 42°21' W 071°02'1 1.6
2017-Sep-11 10:31N 42°21' W 071°03'816.5
2017-Sep-11 10:00N 42°15' W 070°55'0 0.0
2017-Sep-11 09:30N 42°15' W 070°55'1 0.1
2017-Sep-10 21:30N 42°16' W 070°56'714.6
2017-Sep-10 21:00N 42°22' W 071°02'1 1.3
2017-Sep-10 20:30N 42°22' W 071°03'917.3
2017-Sep-10 20:00N 42°24' W 070°52'1529.4
2017-Sep-10 19:30N 42°31' W 070°34'1428.8
2017-Sep-10 19:01N 42°37' W 070°17'2 3.3
2017-Sep-10 18:31N 42°39' W 070°15'3 5.4
2017-Sep-10 18:00N 42°40' W 070°18'511.1
2017-Sep-10 17:30N 42°37' W 070°24'1427.8
2017-Sep-10 17:01N 42°30' W 070°40'1427.9
2017-Sep-10 16:31N 42°22' W 070°56'511.0
2017-Sep-10 16:01N 42°22' W 071°03'0 0.0
2017-Sep-10 15:30N 42°22' W 071°03'1 1.2
2017-Sep-10 15:01N 42°22' W 071°02'0 0.3
2017-Sep-10 14:01N 42°21' W 071°02'1 1.5
2017-Sep-10 13:31N 42°22' W 071°03'0 0.8
2017-Sep-10 13:01N 42°22' W 071°02'0 0.4
2017-Sep-10 12:31N 42°22' W 071°02'816.2
2017-Sep-10 12:01N 42°16' W 070°55'0 0.5
2017-Sep-10 11:30N 42°15' W 070°55'0 0.0
2017-Sep-10 00:26N 42°16' W 070°55'818.8
2017-Sep-10 00:00N 42°21' W 071°02'0 0.9
2017-Sep-09 23:31N 42°22' W 071°03'2 3.8
2017-Sep-09 23:00N 42°21' W 071°01'1325.2
2017-Sep-09 22:30N 42°27' W 070°46'1428.4
2017-Sep-09 22:01N 42°34' W 070°29'1020.2
2017-Sep-09 21:31N 42°40' W 070°18'1 2.9
2017-Sep-09 21:00N 42°39' W 070°16'1 1.1
2017-Sep-09 20:30N 42°39' W 070°15'1019.2
2017-Sep-09 20:01N 42°35' W 070°28'918.9
2017-Sep-09 19:30N 42°30' W 070°38'1529.1
2017-Sep-09 19:01N 42°22' W 070°55'612.3
2017-Sep-09 18:30N 42°22' W 071°03'1 2.0
2017-Sep-09 18:00N 42°21' W 071°02'1526.5
2017-Sep-09 17:26N 42°28' W 070°43'1229.1
2017-Sep-09 17:01N 42°34' W 070°29'1326.8
2017-Sep-09 16:30N 42°41' W 070°13'1 1.9
2017-Sep-09 16:01N 42°40' W 070°13'714.6
2017-Sep-09 15:30N 42°38' W 070°23'  

Dump ship's entire track history